sensor_id;sensor_type;location;lat;lon;timestamp;P1;durP1;ratioP1;P2;durP2;ratioP2
18140;SDS011;9196;49.194;12.526;2022-07-23T00:02:22;12.30;;;10.47;;
18140;SDS011;9196;49.194;12.526;2022-07-23T00:04:49;15.93;;;11.83;;
18140;SDS011;9196;49.194;12.526;2022-07-23T00:07:16;16.17;;;12.50;;
18140;SDS011;9196;49.194;12.526;2022-07-23T00:09:43;14.87;;;11.90;;
18140;SDS011;9196;49.194;12.526;2022-07-23T00:12:09;15.97;;;11.90;;
18140;SDS011;9196;49.194;12.526;2022-07-23T00:14:37;15.63;;;11.77;;
18140;SDS011;9196;49.194;12.526;2022-07-23T00:17:04;13.97;;;11.77;;
18140;SDS011;9196;49.194;12.526;2022-07-23T00:19:31;12.60;;;11.50;;
18140;SDS011;9196;49.194;12.526;2022-07-23T00:21:58;14.43;;;11.83;;
18140;SDS011;9196;49.194;12.526;2022-07-23T00:24:25;16.10;;;10.70;;
18140;SDS011;9196;49.194;12.526;2022-07-23T00:26:51;11.37;;;9.23;;
18140;SDS011;9196;49.194;12.526;2022-07-23T00:29:18;12.10;;;10.30;;
18140;SDS011;9196;49.194;12.526;2022-07-23T00:31:46;10.63;;;9.63;;
18140;SDS011;9196;49.194;12.526;2022-07-23T00:34:13;9.97;;;8.93;;
18140;SDS011;9196;49.194;12.526;2022-07-23T00:36:40;11.50;;;10.30;;
18140;SDS011;9196;49.194;12.526;2022-07-23T00:39:07;11.60;;;10.40;;
18140;SDS011;9196;49.194;12.526;2022-07-23T00:41:33;12.77;;;9.73;;
18140;SDS011;9196;49.194;12.526;2022-07-23T00:44:13;9.77;;;8.87;;
18140;SDS011;9196;49.194;12.526;2022-07-23T00:46:44;20.50;;;10.30;;
18140;SDS011;9196;49.194;12.526;2022-07-23T00:49:13;14.10;;;10.60;;
18140;SDS011;9196;49.194;12.526;2022-07-23T00:51:40;12.70;;;11.60;;
18140;SDS011;9196;49.194;12.526;2022-07-23T00:54:07;13.40;;;12.10;;
18140;SDS011;9196;49.194;12.526;2022-07-23T00:56:33;13.47;;;12.23;;
18140;SDS011;9196;49.194;12.526;2022-07-23T00:59:00;20.03;;;12.30;;
18140;SDS011;9196;49.194;12.526;2022-07-23T01:01:28;13.10;;;11.80;;
18140;SDS011;9196;49.194;12.526;2022-07-23T01:03:56;15.60;;;12.40;;
18140;SDS011;9196;49.194;12.526;2022-07-23T01:06:22;12.50;;;11.40;;
18140;SDS011;9196;49.194;12.526;2022-07-23T01:08:49;15.00;;;12.00;;
18140;SDS011;9196;49.194;12.526;2022-07-23T01:11:16;14.10;;;12.67;;
18140;SDS011;9196;49.194;12.526;2022-07-23T01:13:45;12.00;;;10.90;;
18140;SDS011;9196;49.194;12.526;2022-07-23T01:16:12;12.33;;;10.90;;
18140;SDS011;9196;49.194;12.526;2022-07-23T01:18:39;12.63;;;11.17;;
18140;SDS011;9196;49.194;12.526;2022-07-23T01:21:07;13.03;;;11.73;;
18140;SDS011;9196;49.194;12.526;2022-07-23T01:23:39;13.50;;;12.27;;
18140;SDS011;9196;49.194;12.526;2022-07-23T01:26:06;15.10;;;12.30;;
18140;SDS011;9196;49.194;12.526;2022-07-23T01:28:32;13.50;;;12.10;;
18140;SDS011;9196;49.194;12.526;2022-07-23T01:30:59;13.47;;;11.70;;
18140;SDS011;9196;49.194;12.526;2022-07-23T01:33:26;12.50;;;11.17;;
18140;SDS011;9196;49.194;12.526;2022-07-23T01:35:53;13.03;;;11.73;;
18140;SDS011;9196;49.194;12.526;2022-07-23T01:38:20;15.13;;;11.57;;
18140;SDS011;9196;49.194;12.526;2022-07-23T01:40:48;12.50;;;11.30;;
18140;SDS011;9196;49.194;12.526;2022-07-23T01:43:15;11.50;;;10.30;;
18140;SDS011;9196;49.194;12.526;2022-07-23T01:45:42;11.13;;;10.10;;
18140;SDS011;9196;49.194;12.526;2022-07-23T01:48:09;13.63;;;11.57;;
18140;SDS011;9196;49.194;12.526;2022-07-23T01:50:36;11.80;;;10.73;;
18140;SDS011;9196;49.194;12.526;2022-07-23T01:53:03;11.73;;;10.63;;
18140;SDS011;9196;49.194;12.526;2022-07-23T01:55:29;12.47;;;11.17;;
18140;SDS011;9196;49.194;12.526;2022-07-23T01:57:57;14.57;;;10.50;;
18140;SDS011;9196;49.194;12.526;2022-07-23T02:00:24;11.53;;;10.50;;
18140;SDS011;9196;49.194;12.526;2022-07-23T02:02:51;12.97;;;11.67;;
18140;SDS011;9196;49.194;12.526;2022-07-23T02:05:17;14.13;;;11.00;;
18140;SDS011;9196;49.194;12.526;2022-07-23T02:07:44;14.13;;;10.10;;
18140;SDS011;9196;49.194;12.526;2022-07-23T02:10:11;10.93;;;10.03;;
18140;SDS011;9196;49.194;12.526;2022-07-23T02:12:38;10.70;;;9.60;;
18140;SDS011;9196;49.194;12.526;2022-07-23T02:15:06;11.73;;;10.53;;
18140;SDS011;9196;49.194;12.526;2022-07-23T02:17:33;13.63;;;10.93;;
18140;SDS011;9196;49.194;12.526;2022-07-23T02:20:00;11.57;;;10.57;;
18140;SDS011;9196;49.194;12.526;2022-07-23T02:22:27;13.53;;;11.07;;
18140;SDS011;9196;49.194;12.526;2022-07-23T02:24:54;10.50;;;9.60;;
18140;SDS011;9196;49.194;12.526;2022-07-23T02:27:21;11.80;;;10.70;;
18140;SDS011;9196;49.194;12.526;2022-07-23T02:29:48;12.13;;;11.03;;
18140;SDS011;9196;49.194;12.526;2022-07-23T02:32:16;15.07;;;10.00;;
18140;SDS011;9196;49.194;12.526;2022-07-23T02:34:43;12.20;;;10.87;;
18140;SDS011;9196;49.194;12.526;2022-07-23T02:37:09;11.20;;;10.10;;
18140;SDS011;9196;49.194;12.526;2022-07-23T02:39:36;12.57;;;11.43;;
18140;SDS011;9196;49.194;12.526;2022-07-23T02:42:03;12.20;;;10.87;;
18140;SDS011;9196;49.194;12.526;2022-07-23T02:44:30;12.40;;;11.10;;
18140;SDS011;9196;49.194;12.526;2022-07-23T02:46:57;13.80;;;10.33;;
18140;SDS011;9196;49.194;12.526;2022-07-23T02:49:25;12.83;;;11.60;;
18140;SDS011;9196;49.194;12.526;2022-07-23T02:51:52;13.13;;;11.00;;
18140;SDS011;9196;49.194;12.526;2022-07-23T02:54:19;18.73;;;10.40;;
18140;SDS011;9196;49.194;12.526;2022-07-23T02:56:45;11.93;;;10.80;;
18140;SDS011;9196;49.194;12.526;2022-07-23T02:59:12;13.27;;;10.20;;
18140;SDS011;9196;49.194;12.526;2022-07-23T03:01:39;12.70;;;11.23;;
18140;SDS011;9196;49.194;12.526;2022-07-23T03:04:06;11.77;;;10.57;;
18140;SDS011;9196;49.194;12.526;2022-07-23T03:06:34;13.67;;;9.90;;
18140;SDS011;9196;49.194;12.526;2022-07-23T03:09:01;9.97;;;9.07;;
18140;SDS011;9196;49.194;12.526;2022-07-23T03:11:28;10.10;;;9.10;;
18140;SDS011;9196;49.194;12.526;2022-07-23T03:13:54;11.13;;;8.23;;
18140;SDS011;9196;49.194;12.526;2022-07-23T03:16:21;8.10;;;7.37;;
18140;SDS011;9196;49.194;12.526;2022-07-23T03:18:48;13.60;;;8.67;;
18140;SDS011;9196;49.194;12.526;2022-07-23T03:21:15;8.70;;;6.83;;
18140;SDS011;9196;49.194;12.526;2022-07-23T03:23:43;7.73;;;7.00;;
18140;SDS011;9196;49.194;12.526;2022-07-23T03:26:10;7.43;;;6.73;;
18140;SDS011;9196;49.194;12.526;2022-07-23T03:28:36;11.30;;;6.57;;
18140;SDS011;9196;49.194;12.526;2022-07-23T03:31:03;8.13;;;7.07;;
18140;SDS011;9196;49.194;12.526;2022-07-23T03:33:30;8.20;;;7.50;;
18140;SDS011;9196;49.194;12.526;2022-07-23T03:35:57;7.30;;;6.60;;
18140;SDS011;9196;49.194;12.526;2022-07-23T03:38:23;8.10;;;7.10;;
18140;SDS011;9196;49.194;12.526;2022-07-23T03:40:52;7.70;;;6.40;;
18140;SDS011;9196;49.194;12.526;2022-07-23T03:43:18;10.20;;;6.83;;
18140;SDS011;9196;49.194;12.526;2022-07-23T03:45:45;12.43;;;6.97;;
18140;SDS011;9196;49.194;12.526;2022-07-23T03:48:12;8.40;;;7.37;;
18140;SDS011;9196;49.194;12.526;2022-07-23T03:50:39;7.30;;;6.60;;
18140;SDS011;9196;49.194;12.526;2022-07-23T03:53:05;8.10;;;7.30;;
18140;SDS011;9196;49.194;12.526;2022-07-23T03:55:32;8.10;;;7.30;;
18140;SDS011;9196;49.194;12.526;2022-07-23T03:58:00;9.63;;;7.03;;
18140;SDS011;9196;49.194;12.526;2022-07-23T04:00:27;10.20;;;9.20;;
18140;SDS011;9196;49.194;12.526;2022-07-23T04:02:54;17.77;;;8.20;;
18140;SDS011;9196;49.194;12.526;2022-07-23T04:05:21;9.50;;;7.40;;
18140;SDS011;9196;49.194;12.526;2022-07-23T04:07:48;10.40;;;7.03;;
18140;SDS011;9196;49.194;12.526;2022-07-23T04:10:15;11.63;;;6.63;;
18140;SDS011;9196;49.194;12.526;2022-07-23T04:12:42;12.47;;;7.70;;
18140;SDS011;9196;49.194;12.526;2022-07-23T04:15:10;11.80;;;7.00;;
18140;SDS011;9196;49.194;12.526;2022-07-23T04:17:37;9.17;;;6.70;;
18140;SDS011;9196;49.194;12.526;2022-07-23T04:20:04;8.17;;;7.27;;
18140;SDS011;9196;49.194;12.526;2022-07-23T04:22:31;9.47;;;8.57;;
18140;SDS011;9196;49.194;12.526;2022-07-23T04:24:58;7.63;;;6.80;;
18140;SDS011;9196;49.194;12.526;2022-07-23T04:27:25;8.27;;;7.37;;
18140;SDS011;9196;49.194;12.526;2022-07-23T04:29:52;14.30;;;11.40;;
18140;SDS011;9196;49.194;12.526;2022-07-23T04:32:20;13.37;;;11.40;;
18140;SDS011;9196;49.194;12.526;2022-07-23T04:34:46;8.10;;;6.80;;
18140;SDS011;9196;49.194;12.526;2022-07-23T04:37:13;9.47;;;7.30;;
18140;SDS011;9196;49.194;12.526;2022-07-23T04:39:40;8.80;;;7.93;;
18140;SDS011;9196;49.194;12.526;2022-07-23T04:42:07;7.57;;;6.80;;
18140;SDS011;9196;49.194;12.526;2022-07-23T04:44:33;12.70;;;7.03;;
18140;SDS011;9196;49.194;12.526;2022-07-23T04:47:00;11.73;;;7.23;;
18140;SDS011;9196;49.194;12.526;2022-07-23T04:49:28;8.17;;;7.37;;
18140;SDS011;9196;49.194;12.526;2022-07-23T04:51:55;7.37;;;6.47;;
18140;SDS011;9196;49.194;12.526;2022-07-23T04:54:22;10.40;;;7.43;;
18140;SDS011;9196;49.194;12.526;2022-07-23T04:56:49;7.93;;;6.33;;
18140;SDS011;9196;49.194;12.526;2022-07-23T04:59:15;8.53;;;6.37;;
18140;SDS011;9196;49.194;12.526;2022-07-23T05:01:42;11.10;;;6.30;;
18140;SDS011;9196;49.194;12.526;2022-07-23T05:04:09;9.13;;;7.27;;
18140;SDS011;9196;49.194;12.526;2022-07-23T05:06:37;7.00;;;6.23;;
18140;SDS011;9196;49.194;12.526;2022-07-23T05:09:04;6.73;;;6.23;;
18140;SDS011;9196;49.194;12.526;2022-07-23T05:11:30;7.37;;;6.67;;
18140;SDS011;9196;49.194;12.526;2022-07-23T05:13:57;8.17;;;7.37;;
18140;SDS011;9196;49.194;12.526;2022-07-23T05:16:24;10.50;;;7.77;;
18140;SDS011;9196;49.194;12.526;2022-07-23T05:18:51;8.80;;;7.30;;
18140;SDS011;9196;49.194;12.526;2022-07-23T05:21:18;11.93;;;7.17;;
18140;SDS011;9196;49.194;12.526;2022-07-23T05:23:47;8.83;;;7.03;;
18140;SDS011;9196;49.194;12.526;2022-07-23T05:26:14;8.57;;;6.97;;
18140;SDS011;9196;49.194;12.526;2022-07-23T05:28:40;9.00;;;6.70;;
18140;SDS011;9196;49.194;12.526;2022-07-23T05:31:07;7.13;;;6.50;;
18140;SDS011;9196;49.194;12.526;2022-07-23T05:33:34;8.10;;;6.23;;
18140;SDS011;9196;49.194;12.526;2022-07-23T05:36:01;9.63;;;7.43;;
18140;SDS011;9196;49.194;12.526;2022-07-23T05:38:28;9.20;;;6.60;;
18140;SDS011;9196;49.194;12.526;2022-07-23T05:40:56;7.40;;;6.70;;
18140;SDS011;9196;49.194;12.526;2022-07-23T05:43:23;7.20;;;6.50;;
18140;SDS011;9196;49.194;12.526;2022-07-23T05:45:50;7.10;;;6.43;;
18140;SDS011;9196;49.194;12.526;2022-07-23T05:48:17;6.87;;;6.13;;
18140;SDS011;9196;49.194;12.526;2022-07-23T05:50:44;8.50;;;6.93;;
18140;SDS011;9196;49.194;12.526;2022-07-23T05:53:10;12.63;;;6.97;;
18140;SDS011;9196;49.194;12.526;2022-07-23T05:55:37;7.70;;;6.90;;
18140;SDS011;9196;49.194;12.526;2022-07-23T05:58:05;10.20;;;7.40;;
18140;SDS011;9196;49.194;12.526;2022-07-23T06:00:34;12.50;;;7.03;;
18140;SDS011;9196;49.194;12.526;2022-07-23T06:03:00;8.93;;;7.23;;
18140;SDS011;9196;49.194;12.526;2022-07-23T06:05:27;11.67;;;7.33;;
18140;SDS011;9196;49.194;12.526;2022-07-23T06:07:54;14.10;;;7.33;;
18140;SDS011;9196;49.194;12.526;2022-07-23T06:10:21;11.13;;;7.00;;
18140;SDS011;9196;49.194;12.526;2022-07-23T06:12:48;7.80;;;6.23;;
18140;SDS011;9196;49.194;12.526;2022-07-23T06:15:16;10.53;;;6.60;;
18140;SDS011;9196;49.194;12.526;2022-07-23T06:17:42;8.23;;;7.13;;
18140;SDS011;9196;49.194;12.526;2022-07-23T06:20:09;15.80;;;8.43;;
18140;SDS011;9196;49.194;12.526;2022-07-23T06:22:37;11.30;;;10.10;;
18140;SDS011;9196;49.194;12.526;2022-07-23T06:25:04;9.37;;;7.00;;
18140;SDS011;9196;49.194;12.526;2022-07-23T06:27:31;8.73;;;7.57;;
18140;SDS011;9196;49.194;12.526;2022-07-23T06:29:58;8.40;;;7.50;;
18140;SDS011;9196;49.194;12.526;2022-07-23T06:32:26;7.30;;;6.60;;
18140;SDS011;9196;49.194;12.526;2022-07-23T06:34:53;10.73;;;7.67;;
18140;SDS011;9196;49.194;12.526;2022-07-23T06:37:20;7.50;;;6.50;;
18140;SDS011;9196;49.194;12.526;2022-07-23T06:39:46;13.30;;;7.03;;
18140;SDS011;9196;49.194;12.526;2022-07-23T06:42:13;5.90;;;5.40;;
18140;SDS011;9196;49.194;12.526;2022-07-23T06:44:40;8.83;;;6.77;;
18140;SDS011;9196;49.194;12.526;2022-07-23T06:47:07;7.40;;;6.30;;
18140;SDS011;9196;49.194;12.526;2022-07-23T06:49:35;10.07;;;6.37;;
18140;SDS011;9196;49.194;12.526;2022-07-23T06:52:02;14.23;;;6.70;;
18140;SDS011;9196;49.194;12.526;2022-07-23T06:54:29;17.10;;;6.33;;
18140;SDS011;9196;49.194;12.526;2022-07-23T06:56:56;9.40;;;6.53;;
18140;SDS011;9196;49.194;12.526;2022-07-23T06:59:22;5.63;;;5.13;;
18140;SDS011;9196;49.194;12.526;2022-07-23T07:01:49;11.13;;;5.70;;
18140;SDS011;9196;49.194;12.526;2022-07-23T07:04:16;4.47;;;4.03;;
18140;SDS011;9196;49.194;12.526;2022-07-23T07:06:44;7.83;;;5.43;;
18140;SDS011;9196;49.194;12.526;2022-07-23T07:09:11;5.70;;;3.80;;
18140;SDS011;9196;49.194;12.526;2022-07-23T07:11:38;5.87;;;4.17;;
18140;SDS011;9196;49.194;12.526;2022-07-23T07:14:04;4.43;;;3.87;;
18140;SDS011;9196;49.194;12.526;2022-07-23T07:16:31;9.73;;;4.67;;
18140;SDS011;9196;49.194;12.526;2022-07-23T07:18:58;5.33;;;4.10;;
18140;SDS011;9196;49.194;12.526;2022-07-23T07:21:25;7.30;;;4.90;;
18140;SDS011;9196;49.194;12.526;2022-07-23T07:23:53;8.10;;;4.50;;
18140;SDS011;9196;49.194;12.526;2022-07-23T07:26:20;4.87;;;4.47;;
18140;SDS011;9196;49.194;12.526;2022-07-23T07:28:47;4.93;;;4.50;;
18140;SDS011;9196;49.194;12.526;2022-07-23T07:31:13;9.70;;;4.63;;
18140;SDS011;9196;49.194;12.526;2022-07-23T07:33:41;10.40;;;4.87;;
18140;SDS011;9196;49.194;12.526;2022-07-23T07:36:08;4.53;;;3.90;;
18140;SDS011;9196;49.194;12.526;2022-07-23T07:38:35;5.60;;;4.23;;
18140;SDS011;9196;49.194;12.526;2022-07-23T07:41:03;4.87;;;4.10;;
18140;SDS011;9196;49.194;12.526;2022-07-23T07:43:30;4.43;;;4.10;;
18140;SDS011;9196;49.194;12.526;2022-07-23T07:45:57;9.70;;;3.80;;
18140;SDS011;9196;49.194;12.526;2022-07-23T07:48:24;6.00;;;4.10;;
18140;SDS011;9196;49.194;12.526;2022-07-23T07:50:50;4.70;;;4.30;;
18140;SDS011;9196;49.194;12.526;2022-07-23T07:53:17;9.67;;;4.00;;
18140;SDS011;9196;49.194;12.526;2022-07-23T07:55:44;4.07;;;3.57;;
18140;SDS011;9196;49.194;12.526;2022-07-23T07:58:12;4.63;;;4.23;;
18140;SDS011;9196;49.194;12.526;2022-07-23T08:00:39;4.20;;;3.80;;
18140;SDS011;9196;49.194;12.526;2022-07-23T08:03:06;3.43;;;3.23;;
18140;SDS011;9196;49.194;12.526;2022-07-23T08:05:33;4.30;;;3.90;;
18140;SDS011;9196;49.194;12.526;2022-07-23T08:07:59;7.27;;;4.80;;
18140;SDS011;9196;49.194;12.526;2022-07-23T08:10:27;8.33;;;3.97;;
18140;SDS011;9196;49.194;12.526;2022-07-23T08:12:56;4.97;;;3.80;;
18140;SDS011;9196;49.194;12.526;2022-07-23T08:15:27;9.23;;;4.00;;
18140;SDS011;9196;49.194;12.526;2022-07-23T08:17:55;6.03;;;5.17;;
18140;SDS011;9196;49.194;12.526;2022-07-23T08:20:23;4.50;;;4.10;;
18140;SDS011;9196;49.194;12.526;2022-07-23T08:22:50;4.97;;;3.97;;
18140;SDS011;9196;49.194;12.526;2022-07-23T08:25:20;4.80;;;4.37;;
18140;SDS011;9196;49.194;12.526;2022-07-23T08:27:47;4.63;;;4.20;;
18140;SDS011;9196;49.194;12.526;2022-07-23T08:30:15;10.43;;;4.43;;
18140;SDS011;9196;49.194;12.526;2022-07-23T08:32:55;4.37;;;4.07;;
18140;SDS011;9196;49.194;12.526;2022-07-23T08:35:23;4.23;;;3.77;;
18140;SDS011;9196;49.194;12.526;2022-07-23T08:37:52;4.57;;;4.10;;
18140;SDS011;9196;49.194;12.526;2022-07-23T08:40:19;3.93;;;3.63;;
18140;SDS011;9196;49.194;12.526;2022-07-23T08:42:47;3.90;;;3.70;;
18140;SDS011;9196;49.194;12.526;2022-07-23T08:45:15;7.20;;;4.30;;
18140;SDS011;9196;49.194;12.526;2022-07-23T08:47:43;7.90;;;4.00;;
18140;SDS011;9196;49.194;12.526;2022-07-23T08:50:12;3.90;;;3.60;;
18140;SDS011;9196;49.194;12.526;2022-07-23T08:52:39;6.40;;;4.07;;
18140;SDS011;9196;49.194;12.526;2022-07-23T08:55:07;5.00;;;4.20;;
18140;SDS011;9196;49.194;12.526;2022-07-23T08:57:34;5.20;;;4.23;;
18140;SDS011;9196;49.194;12.526;2022-07-23T09:00:01;3.93;;;3.73;;
18140;SDS011;9196;49.194;12.526;2022-07-23T09:02:28;4.53;;;4.17;;
18140;SDS011;9196;49.194;12.526;2022-07-23T09:04:55;8.93;;;5.00;;
18140;SDS011;9196;49.194;12.526;2022-07-23T09:07:23;5.57;;;5.03;;
18140;SDS011;9196;49.194;12.526;2022-07-23T09:09:58;4.40;;;4.10;;
18140;SDS011;9196;49.194;12.526;2022-07-23T09:12:31;4.53;;;4.23;;
18140;SDS011;9196;49.194;12.526;2022-07-23T09:15:02;7.30;;;6.57;;
18140;SDS011;9196;49.194;12.526;2022-07-23T09:17:32;4.50;;;4.20;;
18140;SDS011;9196;49.194;12.526;2022-07-23T09:20:07;5.53;;;4.60;;
18140;SDS011;9196;49.194;12.526;2022-07-23T09:22:36;4.40;;;4.10;;
18140;SDS011;9196;49.194;12.526;2022-07-23T09:25:05;4.90;;;4.50;;
18140;SDS011;9196;49.194;12.526;2022-07-23T09:27:51;4.20;;;3.87;;
18140;SDS011;9196;49.194;12.526;2022-07-23T09:30:19;4.40;;;4.10;;
18140;SDS011;9196;49.194;12.526;2022-07-23T09:33:06;3.80;;;3.60;;
18140;SDS011;9196;49.194;12.526;2022-07-23T09:35:44;4.80;;;4.40;;
18140;SDS011;9196;49.194;12.526;2022-07-23T09:38:14;4.47;;;4.07;;
18140;SDS011;9196;49.194;12.526;2022-07-23T09:40:41;5.10;;;4.13;;
18140;SDS011;9196;49.194;12.526;2022-07-23T09:43:09;4.60;;;3.87;;
18140;SDS011;9196;49.194;12.526;2022-07-23T09:45:35;3.80;;;3.60;;
18140;SDS011;9196;49.194;12.526;2022-07-23T09:48:10;8.30;;;4.57;;
18140;SDS011;9196;49.194;12.526;2022-07-23T09:50:39;4.23;;;3.90;;
18140;SDS011;9196;49.194;12.526;2022-07-23T09:53:06;5.20;;;4.00;;
18140;SDS011;9196;49.194;12.526;2022-07-23T09:55:36;4.23;;;3.93;;
18140;SDS011;9196;49.194;12.526;2022-07-23T09:58:03;4.70;;;4.40;;
18140;SDS011;9196;49.194;12.526;2022-07-23T10:00:32;5.13;;;4.53;;
18140;SDS011;9196;49.194;12.526;2022-07-23T10:02:59;4.43;;;4.03;;
18140;SDS011;9196;49.194;12.526;2022-07-23T10:05:27;4.33;;;4.00;;
18140;SDS011;9196;49.194;12.526;2022-07-23T10:07:54;4.63;;;4.33;;
18140;SDS011;9196;49.194;12.526;2022-07-23T10:10:22;4.73;;;4.43;;
18140;SDS011;9196;49.194;12.526;2022-07-23T10:12:52;4.50;;;4.20;;
18140;SDS011;9196;49.194;12.526;2022-07-23T10:15:37;3.80;;;3.60;;
18140;SDS011;9196;49.194;12.526;2022-07-23T10:18:06;5.37;;;4.50;;
18140;SDS011;9196;49.194;12.526;2022-07-23T10:20:33;4.57;;;4.27;;
18140;SDS011;9196;49.194;12.526;2022-07-23T10:23:02;4.87;;;4.47;;
18140;SDS011;9196;49.194;12.526;2022-07-23T10:25:36;4.30;;;3.97;;
18140;SDS011;9196;49.194;12.526;2022-07-23T10:28:12;4.33;;;4.03;;
18140;SDS011;9196;49.194;12.526;2022-07-23T10:30:55;4.40;;;4.00;;
18140;SDS011;9196;49.194;12.526;2022-07-23T10:33:30;4.30;;;4.00;;
18140;SDS011;9196;49.194;12.526;2022-07-23T10:36:08;4.00;;;3.80;;
18140;SDS011;9196;49.194;12.526;2022-07-23T10:38:42;4.37;;;4.13;;
18140;SDS011;9196;49.194;12.526;2022-07-23T10:41:17;4.03;;;3.70;;
18140;SDS011;9196;49.194;12.526;2022-07-23T10:44:09;4.40;;;4.10;;
18140;SDS011;9196;49.194;12.526;2022-07-23T10:49:24;4.30;;;4.00;;
18140;SDS011;9196;49.194;12.526;2022-07-23T10:54:49;4.67;;;4.37;;
18140;SDS011;9196;49.194;12.526;2022-07-23T10:57:18;4.27;;;3.97;;
18140;SDS011;9196;49.194;12.526;2022-07-23T11:02:46;5.00;;;4.70;;
18140;SDS011;9196;49.194;12.526;2022-07-23T11:05:17;4.93;;;4.63;;
18140;SDS011;9196;49.194;12.526;2022-07-23T11:10:45;4.60;;;4.03;;
18140;SDS011;9196;49.194;12.526;2022-07-23T11:16:08;5.50;;;4.57;;
18140;SDS011;9196;49.194;12.526;2022-07-23T11:18:53;4.57;;;4.13;;
18140;SDS011;9196;49.194;12.526;2022-07-23T11:21:44;6.57;;;5.10;;
18140;SDS011;9196;49.194;12.526;2022-07-23T11:24:12;7.10;;;4.70;;
18140;SDS011;9196;49.194;12.526;2022-07-23T11:26:40;5.97;;;5.43;;
18140;SDS011;9196;49.194;12.526;2022-07-23T11:32:29;6.67;;;6.10;;
18140;SDS011;9196;49.194;12.526;2022-07-23T11:35:03;6.97;;;6.37;;
18140;SDS011;9196;49.194;12.526;2022-07-23T11:37:49;6.63;;;5.20;;
18140;SDS011;9196;49.194;12.526;2022-07-23T11:40:19;6.80;;;6.10;;
18140;SDS011;9196;49.194;12.526;2022-07-23T11:42:51;8.10;;;5.50;;
18140;SDS011;9196;49.194;12.526;2022-07-23T11:45:20;6.70;;;6.10;;
18140;SDS011;9196;49.194;12.526;2022-07-23T11:47:49;7.53;;;5.50;;
18140;SDS011;9196;49.194;12.526;2022-07-23T11:50:15;6.00;;;5.50;;
18140;SDS011;9196;49.194;12.526;2022-07-23T11:52:42;6.80;;;6.10;;
18140;SDS011;9196;49.194;12.526;2022-07-23T11:55:10;6.97;;;5.63;;
18140;SDS011;9196;49.194;12.526;2022-07-23T11:57:38;6.20;;;5.60;;
18140;SDS011;9196;49.194;12.526;2022-07-23T12:00:06;5.40;;;4.87;;
18140;SDS011;9196;49.194;12.526;2022-07-23T12:02:35;6.00;;;5.47;;
18140;SDS011;9196;49.194;12.526;2022-07-23T12:05:04;5.60;;;5.10;;
18140;SDS011;9196;49.194;12.526;2022-07-23T12:07:32;5.43;;;5.00;;
18140;SDS011;9196;49.194;12.526;2022-07-23T12:10:01;6.90;;;5.20;;
18140;SDS011;9196;49.194;12.526;2022-07-23T12:12:34;7.90;;;5.77;;
18140;SDS011;9196;49.194;12.526;2022-07-23T12:15:03;5.53;;;4.50;;
18140;SDS011;9196;49.194;12.526;2022-07-23T12:17:32;8.80;;;5.80;;
18140;SDS011;9196;49.194;12.526;2022-07-23T12:20:00;7.47;;;6.77;;
18140;SDS011;9196;49.194;12.526;2022-07-23T12:22:35;5.10;;;4.70;;
18140;SDS011;9196;49.194;12.526;2022-07-23T12:25:04;5.10;;;4.70;;
18140;SDS011;9196;49.194;12.526;2022-07-23T12:27:33;4.73;;;4.33;;
18140;SDS011;9196;49.194;12.526;2022-07-23T12:30:14;5.27;;;4.97;;
18140;SDS011;9196;49.194;12.526;2022-07-23T12:32:46;4.67;;;4.20;;
18140;SDS011;9196;49.194;12.526;2022-07-23T12:35:16;4.60;;;4.30;;
18140;SDS011;9196;49.194;12.526;2022-07-23T12:37:45;4.13;;;3.87;;
18140;SDS011;9196;49.194;12.526;2022-07-23T12:40:21;9.67;;;3.83;;
18140;SDS011;9196;49.194;12.526;2022-07-23T12:42:50;4.47;;;3.97;;
18140;SDS011;9196;49.194;12.526;2022-07-23T12:45:18;4.10;;;3.80;;
18140;SDS011;9196;49.194;12.526;2022-07-23T12:47:56;4.60;;;4.30;;
18140;SDS011;9196;49.194;12.526;2022-07-23T12:53:22;4.73;;;4.33;;
18140;SDS011;9196;49.194;12.526;2022-07-23T12:55:56;3.93;;;3.73;;
18140;SDS011;9196;49.194;12.526;2022-07-23T12:58:25;4.33;;;3.93;;
18140;SDS011;9196;49.194;12.526;2022-07-23T13:00:56;3.40;;;3.20;;
18140;SDS011;9196;49.194;12.526;2022-07-23T13:03:29;4.57;;;4.23;;
18140;SDS011;9196;49.194;12.526;2022-07-23T13:06:00;4.27;;;4.00;;
18140;SDS011;9196;49.194;12.526;2022-07-23T13:08:31;4.60;;;4.20;;
18140;SDS011;9196;49.194;12.526;2022-07-23T13:10:58;4.13;;;3.80;;
18140;SDS011;9196;49.194;12.526;2022-07-23T13:13:26;8.03;;;3.93;;
18140;SDS011;9196;49.194;12.526;2022-07-23T13:15:54;4.73;;;4.27;;
18140;SDS011;9196;49.194;12.526;2022-07-23T13:18:22;3.97;;;3.77;;
18140;SDS011;9196;49.194;12.526;2022-07-23T13:20:49;3.93;;;3.67;;
18140;SDS011;9196;49.194;12.526;2022-07-23T13:23:16;3.87;;;3.67;;
18140;SDS011;9196;49.194;12.526;2022-07-23T13:25:45;3.63;;;3.30;;
18140;SDS011;9196;49.194;12.526;2022-07-23T13:28:12;3.30;;;3.20;;
18140;SDS011;9196;49.194;12.526;2022-07-23T13:30:40;3.40;;;3.20;;
18140;SDS011;9196;49.194;12.526;2022-07-23T13:33:07;5.17;;;3.57;;
18140;SDS011;9196;49.194;12.526;2022-07-23T13:35:37;3.90;;;3.60;;
18140;SDS011;9196;49.194;12.526;2022-07-23T13:38:04;5.50;;;4.00;;
18140;SDS011;9196;49.194;12.526;2022-07-23T13:40:33;4.17;;;3.80;;
18140;SDS011;9196;49.194;12.526;2022-07-23T13:43:01;3.33;;;3.10;;
18140;SDS011;9196;49.194;12.526;2022-07-23T13:45:28;3.60;;;3.30;;
18140;SDS011;9196;49.194;12.526;2022-07-23T13:47:55;4.03;;;3.83;;
18140;SDS011;9196;49.194;12.526;2022-07-23T13:50:22;3.57;;;3.37;;
18140;SDS011;9196;49.194;12.526;2022-07-23T13:52:48;4.90;;;4.50;;
18140;SDS011;9196;49.194;12.526;2022-07-23T13:55:15;4.07;;;3.40;;
18140;SDS011;9196;49.194;12.526;2022-07-23T13:57:42;3.83;;;3.57;;
18140;SDS011;9196;49.194;12.526;2022-07-23T14:00:11;3.30;;;3.20;;
18140;SDS011;9196;49.194;12.526;2022-07-23T14:02:39;4.03;;;3.73;;
18140;SDS011;9196;49.194;12.526;2022-07-23T14:05:07;3.93;;;3.63;;
18140;SDS011;9196;49.194;12.526;2022-07-23T14:07:35;3.97;;;3.67;;
18140;SDS011;9196;49.194;12.526;2022-07-23T14:10:03;3.70;;;3.40;;
18140;SDS011;9196;49.194;12.526;2022-07-23T14:12:31;3.80;;;3.60;;
18140;SDS011;9196;49.194;12.526;2022-07-23T14:14:57;4.10;;;3.80;;
18140;SDS011;9196;49.194;12.526;2022-07-23T14:17:26;4.03;;;3.83;;
18140;SDS011;9196;49.194;12.526;2022-07-23T14:19:52;3.83;;;3.63;;
18140;SDS011;9196;49.194;12.526;2022-07-23T14:22:19;4.10;;;3.90;;
18140;SDS011;9196;49.194;12.526;2022-07-23T14:24:46;3.60;;;3.40;;
18140;SDS011;9196;49.194;12.526;2022-07-23T14:27:13;4.13;;;3.80;;
18140;SDS011;9196;49.194;12.526;2022-07-23T14:29:40;3.70;;;3.40;;
18140;SDS011;9196;49.194;12.526;2022-07-23T14:32:06;3.40;;;3.23;;
18140;SDS011;9196;49.194;12.526;2022-07-23T14:34:35;4.23;;;3.40;;
18140;SDS011;9196;49.194;12.526;2022-07-23T14:37:02;4.03;;;3.73;;
18140;SDS011;9196;49.194;12.526;2022-07-23T14:39:29;3.77;;;3.47;;
18140;SDS011;9196;49.194;12.526;2022-07-23T14:41:55;3.43;;;3.20;;
18140;SDS011;9196;49.194;12.526;2022-07-23T14:44:22;3.70;;;3.40;;
18140;SDS011;9196;49.194;12.526;2022-07-23T14:46:49;4.13;;;3.70;;
18140;SDS011;9196;49.194;12.526;2022-07-23T14:49:16;4.07;;;3.77;;
18140;SDS011;9196;49.194;12.526;2022-07-23T14:51:44;3.83;;;3.57;;
18140;SDS011;9196;49.194;12.526;2022-07-23T14:54:11;4.23;;;4.03;;
18140;SDS011;9196;49.194;12.526;2022-07-23T14:56:39;3.90;;;3.70;;
18140;SDS011;9196;49.194;12.526;2022-07-23T14:59:06;3.67;;;3.47;;
18140;SDS011;9196;49.194;12.526;2022-07-23T15:01:36;4.03;;;3.73;;
18140;SDS011;9196;49.194;12.526;2022-07-23T15:04:04;3.50;;;3.30;;
18140;SDS011;9196;49.194;12.526;2022-07-23T15:06:31;5.93;;;3.53;;
18140;SDS011;9196;49.194;12.526;2022-07-23T15:09:00;3.50;;;3.30;;